WAAA/UPG METAR and TAF weather

Enter ICAO airport designator
Station Type Date Time Source
WAAA METAR 2019/12/07 15:00 UTC NOAA

WAAA 071500Z 11001KT 8000 FEW020 26/26 Q1011 NOSIG


Station Type Date Time Source
WAAA Decoded METAR 2019/12/07 15:00 UTC NOAA

Ujung Pandang / Hasanuddin, Indonesia (WAAA) 05-04S 119-33E 14M
Dec 07, 2019 - 10:00 AM EST / 2019.12.07 1500 UTC
Wind: from the ESE (110 degrees) at 1 MPH (1 KT):0
Visibility: 4 mile(s):0
Sky conditions: mostly clear
Temperature: 78 F (26 C)
Dew Point: 78 F (26 C)
Relative Humidity: 100%
Pressure (altimeter): 29.85 in. Hg (1011 hPa)
ob: WAAA 071500Z 11001KT 8000 FEW020 26/26 Q1011 NOSIG
cycle: 15

Station Type Date Time Source
WAAA TAF 2019/12/07 12:12 UTC NOAA

TAF TAF WAAA 071100Z 0712/0818 09005KT 8000 SCT018
BECMG 0722/0800 9999
BECMG 0802/0804 29010KT

Example: see airport list